createdAt,value
2024-02-07T00:00:41.158Z,5.18
2024-02-07T00:02:45.205Z,5.75
2024-02-07T00:04:49.692Z,5.40
2024-02-07T00:06:53.735Z,4.47
2024-02-07T00:08:56.831Z,8.20
2024-02-07T00:11:00.779Z,5.97
2024-02-07T00:13:03.689Z,4.97
2024-02-07T00:15:11.138Z,5.57
2024-02-07T00:17:15.022Z,5.55
2024-02-07T00:19:19.484Z,4.35
2024-02-07T00:21:24.032Z,4.40
2024-02-07T00:23:28.091Z,4.78
2024-02-07T00:25:32.208Z,6.18
2024-02-07T00:27:37.372Z,4.90
2024-02-07T00:29:41.282Z,3.58
2024-02-07T00:31:46.925Z,4.03
2024-02-07T00:33:50.768Z,6.30
2024-02-07T00:35:54.530Z,3.88
2024-02-07T00:37:58.775Z,4.75
2024-02-07T00:40:01.578Z,6.20
2024-02-07T00:42:05.618Z,5.13
2024-02-07T00:49:55.619Z,4.90
2024-02-07T00:52:04.639Z,6.75
2024-02-07T00:54:09.991Z,5.20
2024-02-07T00:56:13.843Z,4.90
2024-02-07T00:58:25.166Z,8.35
2024-02-07T01:01:10.438Z,5.75
2024-02-07T01:03:14.421Z,10.00
2024-02-07T01:05:19.610Z,10.18
2024-02-07T01:07:24.901Z,7.55
2024-02-07T01:09:41.037Z,7.63
2024-02-07T01:11:45.631Z,6.18
2024-02-07T01:16:49.771Z,9.10
2024-02-07T01:18:53.608Z,8.65
2024-02-07T01:20:58.098Z,8.02
2024-02-07T01:23:03.645Z,8.43
2024-02-07T01:25:08.399Z,7.20
2024-02-07T01:27:40.589Z,10.77
2024-02-07T01:32:20.682Z,7.47
2024-02-07T01:34:33.629Z,6.35
2024-02-07T01:36:44.818Z,7.22
2024-02-07T01:39:22.378Z,8.63
2024-02-07T01:41:25.576Z,9.65
2024-02-07T01:43:30.803Z,8.98
2024-02-07T01:45:56.931Z,10.88
2024-02-07T01:48:01.110Z,10.02
2024-02-07T01:50:05.270Z,8.10
2024-02-07T01:52:17.661Z,9.77
2024-02-07T01:54:45.877Z,7.70
2024-02-07T01:56:49.742Z,9.75
2024-02-07T01:59:02.723Z,11.73
2024-02-07T02:01:18.591Z,8.18
2024-02-07T02:03:37.729Z,10.15
2024-02-07T02:06:00.767Z,9.05
2024-02-07T02:08:04.972Z,9.23
2024-02-07T02:10:14.483Z,13.38
2024-02-07T02:12:18.608Z,10.13
2024-02-07T02:14:23.424Z,10.43
2024-02-07T02:16:27.686Z,9.98
2024-02-07T02:18:32.294Z,14.88
2024-02-07T02:20:38.518Z,9.25
2024-02-07T02:23:09.153Z,12.38
2024-02-07T02:25:43.199Z,10.63
2024-02-07T02:28:21.890Z,10.70
2024-02-07T02:30:35.941Z,12.55
2024-02-07T02:32:41.816Z,11.68
2024-02-07T02:34:45.696Z,11.65
2024-02-07T02:37:34.880Z,12.35
2024-02-07T02:42:09.792Z,10.32
2024-02-07T02:48:00.426Z,12.25
2024-02-07T02:50:07.295Z,10.18
2024-02-07T02:52:11.108Z,11.20
2024-02-07T02:54:13.979Z,12.20
2024-02-07T02:56:17.840Z,9.07
2024-02-07T02:58:32.308Z,8.85
2024-02-07T03:00:40.530Z,12.27
2024-02-07T03:02:45.119Z,12.55
2024-02-07T03:04:51.439Z,8.40
2024-02-07T03:07:14.882Z,10.93
2024-02-07T03:09:22.632Z,9.65
2024-02-07T03:11:26.424Z,10.57
2024-02-07T03:13:30.251Z,9.75
2024-02-07T03:15:37.315Z,9.50
2024-02-07T03:17:41.924Z,10.65
2024-02-07T03:19:47.009Z,13.18
2024-02-07T03:21:50.861Z,10.30
2024-02-07T03:23:56.709Z,8.95
2024-02-07T03:26:00.515Z,9.30
2024-02-07T03:28:03.545Z,12.70
2024-02-07T03:30:08.669Z,7.97
2024-02-07T03:32:13.819Z,5.97
2024-02-07T03:34:20.799Z,7.13
2024-02-07T03:36:24.912Z,7.07
2024-02-07T03:38:28.868Z,9.73
2024-02-07T03:40:35.385Z,10.23
2024-02-07T03:42:39.261Z,8.45
2024-02-07T03:44:44.779Z,12.32
2024-02-07T03:46:48.445Z,6.72
2024-02-07T03:48:52.098Z,10.75
2024-02-07T03:50:55.914Z,6.45
2024-02-07T03:52:58.910Z,5.63
2024-02-07T03:55:02.683Z,5.50
2024-02-07T03:57:40.009Z,8.23
2024-02-07T03:59:43.758Z,6.63
2024-02-07T04:01:46.953Z,7.50
2024-02-07T04:10:33.482Z,7.68
2024-02-07T04:12:37.756Z,9.68
2024-02-07T04:18:35.678Z,7.00
2024-02-07T04:21:17.926Z,8.57
2024-02-07T04:23:40.088Z,7.63
2024-02-07T04:26:04.216Z,6.15
2024-02-07T04:36:01.992Z,6.33
2024-02-07T04:41:17.458Z,8.73
2024-02-07T04:43:38.997Z,7.38
2024-02-07T04:46:00.605Z,8.90
2024-02-07T04:48:22.099Z,8.80
2024-02-07T04:50:43.487Z,12.00
2024-02-07T04:53:07.683Z,8.80
2024-02-07T04:55:30.153Z,9.77
2024-02-07T04:57:51.394Z,8.37
2024-02-07T05:00:12.709Z,6.83
2024-02-07T05:02:34.033Z,7.85
2024-02-07T05:04:55.499Z,9.73
2024-02-07T05:07:18.843Z,12.57
2024-02-07T05:09:41.325Z,9.93
2024-02-07T05:12:02.804Z,11.70
2024-02-07T05:14:25.648Z,7.95
2024-02-07T05:16:32.462Z,10.73
2024-02-07T05:18:49.955Z,11.38
2024-02-07T05:30:45.122Z,10.43
2024-02-07T05:32:52.540Z,12.20
2024-02-07T05:35:05.773Z,9.47
2024-02-07T05:37:17.005Z,10.68
2024-02-07T05:39:26.494Z,9.57
2024-02-07T05:44:00.589Z,10.70
2024-02-07T05:49:03.433Z,8.17
2024-02-07T05:59:05.607Z,8.77
2024-02-07T06:12:28.351Z,9.27
2024-02-07T06:17:36.202Z,10.65
2024-02-07T09:43:44.302Z,5.60
2024-02-07T09:46:13.062Z,4.80
2024-02-07T09:48:24.373Z,5.55
2024-02-07T09:50:31.305Z,6.50
2024-02-07T09:52:36.367Z,5.90
2024-02-07T09:54:41.184Z,5.32
2024-02-07T09:56:45.194Z,3.72
2024-02-07T09:58:50.670Z,6.95
2024-02-07T10:00:56.537Z,3.88
2024-02-07T10:03:32.417Z,5.93
2024-02-07T10:05:47.696Z,4.00
2024-02-07T10:08:12.848Z,3.75
2024-02-07T10:10:20.289Z,4.80
2024-02-07T10:14:42.556Z,3.58
2024-02-07T10:16:47.938Z,2.95
2024-02-07T10:18:52.505Z,3.70
2024-02-07T10:20:59.094Z,4.50
2024-02-07T10:23:03.711Z,3.78
2024-02-07T10:25:08.975Z,3.58
2024-02-07T10:27:18.454Z,2.92
2024-02-07T10:29:23.276Z,3.00
2024-02-07T10:31:29.082Z,5.53
2024-02-07T10:35:34.505Z,2.85
2024-02-07T10:37:42.460Z,3.72
2024-02-07T10:39:46.553Z,3.55
2024-02-07T10:41:51.065Z,4.95
2024-02-07T10:43:55.052Z,2.85
2024-02-07T10:46:02.822Z,3.50
2024-02-07T10:48:09.321Z,4.32
2024-02-07T10:50:13.594Z,2.92
2024-02-07T10:52:17.924Z,2.50
2024-02-07T10:54:22.122Z,2.25
2024-02-07T10:57:00.120Z,2.83
2024-02-07T10:59:22.994Z,2.53
2024-02-07T11:01:25.888Z,2.55
2024-02-07T11:03:32.513Z,2.83
2024-02-07T11:05:35.859Z,2.75
2024-02-07T11:07:40.170Z,2.33
2024-02-07T11:09:48.221Z,3.00
2024-02-07T11:14:41.117Z,3.78
2024-02-07T11:16:45.453Z,3.47
2024-02-07T11:18:51.064Z,3.35
2024-02-07T11:21:53.705Z,3.25
2024-02-07T11:23:57.962Z,4.63
2024-02-07T11:26:05.950Z,1.98
2024-02-07T11:28:25.829Z,1.52
2024-02-07T11:30:46.240Z,1.63
2024-02-07T11:33:55.603Z,2.97
2024-02-07T15:13:59.438Z,0.77
2024-02-07T15:16:13.000Z,1.73
2024-02-07T15:18:39.630Z,1.93
2024-02-07T15:35:16.743Z,0.57
2024-02-07T15:37:51.321Z,1.13
2024-02-07T15:40:35.280Z,1.60
2024-02-07T15:42:59.306Z,2.07
2024-02-07T15:45:27.766Z,2.27
2024-02-07T15:48:51.113Z,2.10
2024-02-07T15:51:32.162Z,2.00
2024-02-07T15:54:11.555Z,1.93
2024-02-07T15:56:44.059Z,2.13
2024-02-07T16:05:51.926Z,2.10
2024-02-07T16:08:21.643Z,2.60
2024-02-07T16:10:37.839Z,1.40
2024-02-07T16:15:35.994Z,1.33
2024-02-07T16:17:53.983Z,1.20
2024-02-07T16:44:02.620Z,3.07
2024-02-07T16:46:12.303Z,2.07
2024-02-07T16:52:03.094Z,2.43
2024-02-07T16:54:27.675Z,3.27
2024-02-07T17:00:17.329Z,2.67
2024-02-07T17:03:06.201Z,2.77
2024-02-07T17:05:58.151Z,4.73
2024-02-07T17:08:37.419Z,2.63
2024-02-07T17:11:02.945Z,1.53
2024-02-07T17:16:32.869Z,1.50
2024-02-07T17:36:31.796Z,0.70
2024-02-07T17:46:40.658Z,1.03
2024-02-07T19:28:50.813Z,2.25
2024-02-07T19:37:17.258Z,1.90
2024-02-07T19:39:29.170Z,2.77
2024-02-07T19:41:37.558Z,2.10
2024-02-07T19:47:11.239Z,2.83
2024-02-07T19:49:24.584Z,3.07
2024-02-07T19:51:44.118Z,3.70
2024-02-07T19:53:55.122Z,1.40
2024-02-07T19:58:44.388Z,1.93
2024-02-07T20:00:49.074Z,2.70
2024-02-07T20:03:21.498Z,1.83
2024-02-07T20:05:34.334Z,2.20
2024-02-07T20:07:42.045Z,2.70
2024-02-07T20:10:02.298Z,2.00
2024-02-07T20:12:09.182Z,2.20
2024-02-07T20:17:53.153Z,1.73
2024-02-07T20:20:01.161Z,1.50
2024-02-07T20:22:10.740Z,1.50
2024-02-07T20:24:16.203Z,1.60
2024-02-07T20:26:22.768Z,1.53
2024-02-07T20:28:27.423Z,1.60
2024-02-07T20:30:39.669Z,1.73
2024-02-07T20:35:05.858Z,1.90
2024-02-07T20:37:13.550Z,1.77
2024-02-07T20:39:20.625Z,2.00
2024-02-07T20:42:17.338Z,2.43
2024-02-07T20:44:24.678Z,2.73
2024-02-07T20:46:29.780Z,1.83
2024-02-07T20:48:39.920Z,1.87
2024-02-07T20:50:49.829Z,3.20
2024-02-07T21:19:30.073Z,2.10
2024-02-07T21:25:30.456Z,2.37
2024-02-07T21:30:49.865Z,2.67
2024-02-07T21:46:33.699Z,2.07
2024-02-07T22:13:41.804Z,2.00
